Terminal Aerodrome Forecast
Issued by NWS

Home | Current Version | Previous Version | Text Only | Print | Product List | Glossary On
Versions: 1 2 3 4 5 6 7 8 9 10 11 12 13 14 15 16 17 18 19 20 21 22 23 24 25
000
FTUS41 KBUF 260500
TAFJHW
TAF
KJHW 260524Z 2606/2706 05004KT P6SM SKC
     FM261300 03004KT P6SM SCT250
     FM261600 35008KT P6SM SCT250
     FM262000 33011G18KT P6SM BKN050
     FM262100 33010KT P6SM BKN045
     FM270200 31006KT P6SM OVC025
      AMD LTD TO CLD VIS AND WIND=

USA.gov is the U.S. government's official web portal to all federal, state and local government web resources and services.